Time;durP1;ratioP1;P1;durP2;ratioP2;P2;SDS_P1;SDS_P2;PMS_P1;PMS_P2;Temp;Humidity;BMP_temperature;BMP_pressure;BME280_temperature;BME280_humidity;BME280_pressure;Samples;Min_cycle;Max_cycle;Signal;HPM_P1;HPM_P2
2024/02/10 00:01:54;;;;;;;50.30;26.80;;;;;;;2.68;100.00;98681.56;105689;1267;99157;-78
2024/02/10 00:04:40;;;;;;;52.60;28.00;;;;;;;2.70;100.00;98673.58;105362;1264;102707;-78
2024/02/10 00:07:28;;;;;;;47.30;28.70;;;;;;;2.70;100.00;98670.17;105677;1262;100423;-78
2024/02/10 00:10:14;;;;;;;55.60;27.20;;;;;;;2.70;100.00;98669.89;105885;1267;98986;-78
2024/02/10 00:12:59;;;;;;;53.50;27.40;;;;;;;2.68;100.00;98664.28;105858;1267;97948;-78
2024/02/10 00:15:45;;;;;;;47.20;25.40;;;;;;;2.67;100.00;98671.47;105899;1264;97876;-78
2024/02/10 00:18:31;;;;;;;50.20;26.70;;;;;;;2.65;100.00;98671.08;105886;1267;102691;-78
2024/02/10 00:21:20;;;;;;;49.40;26.20;;;;;;;2.64;100.00;98664.76;105906;1264;100846;-79
2024/02/10 00:24:06;;;;;;;55.30;28.60;;;;;;;2.64;100.00;98669.52;105842;1262;97945;-79
2024/02/10 00:26:52;;;;;;;52.40;27.50;;;;;;;2.66;100.00;98671.38;105714;1264;98629;-79
2024/02/10 00:29:38;;;;;;;52.00;28.50;;;;;;;2.69;100.00;98669.23;105805;1262;98512;-79
2024/02/10 00:32:24;;;;;;;56.90;29.40;;;;;;;2.71;100.00;98653.30;105938;1268;101385;-79
2024/02/10 00:35:10;;;;;;;60.00;30.40;;;;;;;2.72;100.00;98648.37;105875;1262;100397;-78
2024/02/10 00:37:56;;;;;;;56.30;29.80;;;;;;;2.73;100.00;98642.52;105787;1268;98006;-78
2024/02/10 00:40:42;;;;;;;53.30;28.30;;;;;;;2.72;100.00;98643.92;105735;1267;98004;-79
2024/02/10 00:43:27;;;;;;;53.80;27.80;;;;;;;2.69;100.00;98646.98;105858;1267;98036;-77
2024/02/10 00:46:15;;;;;;;54.80;28.80;;;;;;;2.69;100.00;98652.70;105834;1266;102266;-78
2024/02/10 00:49:00;;;;;;;52.50;27.70;;;;;;;2.67;100.00;98649.72;105986;1264;99097;-79
2024/02/10 00:51:46;;;;;;;53.20;29.20;;;;;;;2.67;100.00;98645.90;105866;1266;97955;-79
2024/02/10 00:54:31;;;;;;;54.10;27.00;;;;;;;2.67;100.00;98639.73;105867;1267;97998;-79
2024/02/10 00:57:17;;;;;;;57.70;29.60;;;;;;;2.67;100.00;98643.41;105923;1262;97916;-80
2024/02/10 01:00:03;;;;;;;54.60;28.20;;;;;;;2.66;100.00;98643.69;106335;1264;102682;-78
2024/02/10 01:02:49;;;;;;;56.40;28.80;;;;;;;2.66;100.00;98640.48;105910;1271;99293;-80
2024/02/10 01:05:37;;;;;;;55.80;28.80;;;;;;;2.67;100.00;98635.61;106745;1262;97890;-81
2024/02/10 01:08:23;;;;;;;55.90;30.10;;;;;;;2.68;100.00;98637.98;106669;1267;97894;-80
2024/02/10 01:11:11;;;;;;;54.30;29.10;;;;;;;2.68;100.00;98643.27;106466;1266;98507;-80
2024/02/10 01:13:57;;;;;;;53.80;29.20;;;;;;;2.68;100.00;98642.87;106738;1266;102763;-79
2024/02/10 01:16:43;;;;;;;57.00;29.60;;;;;;;2.69;100.00;98642.06;106668;1265;99878;-80
2024/02/10 01:19:28;;;;;;;59.60;30.20;;;;;;;2.69;100.00;98643.66;106557;1264;99075;-80
2024/02/10 01:22:25;;;;;;;56.90;28.60;;;;;;;2.70;100.00;98641.83;106632;1262;97786;-80
2024/02/10 01:25:10;;;;;;;59.60;29.50;;;;;;;2.70;100.00;98641.30;106521;1267;97986;-80
2024/02/10 01:27:58;;;;;;;51.70;27.40;;;;;;;2.69;100.00;98641.70;106648;1265;101386;-80
2024/02/10 01:30:43;;;;;;;55.20;28.70;;;;;;;2.69;100.00;98637.54;106751;1266;99323;-81
2024/02/10 01:33:29;;;;;;;57.10;28.30;;;;;;;2.69;100.00;98635.34;106614;1264;97973;-81
2024/02/10 01:36:15;;;;;;;58.20;28.70;;;;;;;2.71;100.00;98640.67;106622;1265;97810;-80
2024/02/10 01:39:03;;;;;;;59.50;29.50;;;;;;;2.71;100.00;98642.90;106618;1266;98596;-79
2024/02/10 01:41:48;;;;;;;59.90;29.00;;;;;;;2.71;100.00;98644.11;106772;1264;101429;-80
2024/02/10 01:44:34;;;;;;;56.60;28.20;;;;;;;2.71;100.00;98644.08;106171;1267;100356;-80
2024/02/10 01:47:20;;;;;;;58.30;31.30;;;;;;;2.72;100.00;98640.34;106714;1264;99126;-80
2024/02/10 01:50:06;;;;;;;56.50;28.60;;;;;;;2.73;100.00;98635.47;106564;1267;98437;-80
2024/02/10 01:52:53;;;;;;;66.70;31.60;;;;;;;2.73;100.00;98634.51;106863;1266;99832;-80
2024/02/10 01:55:41;;;;;;;57.40;29.80;;;;;;;2.75;100.00;98637.31;107295;1264;101390;-79
2024/02/10 01:58:31;;;;;;;61.70;31.90;;;;;;;2.76;100.00;98635.61;106598;1267;99938;-79
2024/02/10 02:01:17;;;;;;;70.20;33.20;;;;;;;2.77;100.00;98634.48;106570;1267;99454;-79
2024/02/10 02:04:06;;;;;;;63.90;32.40;;;;;;;2.77;100.00;98629.44;106081;1266;98022;-79
2024/02/10 02:06:54;;;;;;;63.30;30.70;;;;;;;2.78;100.00;98628.84;106139;1266;97608;-79
2024/02/10 02:09:40;;;;;;;68.00;31.80;;;;;;;2.79;100.00;98633.65;106254;1264;102103;-79
2024/02/10 02:12:27;;;;;;;71.50;32.60;;;;;;;2.80;100.00;98636.01;105960;1262;99199;-78
2024/02/10 02:15:12;;;;;;;66.70;31.00;;;;;;;2.80;100.00;98631.02;106242;1266;97870;-81
2024/02/10 02:17:59;;;;;;;66.70;30.10;;;;;;;2.81;100.00;98622.08;105476;1267;98044;-78
2024/02/10 02:20:47;;;;;;;74.70;34.50;;;;;;;2.82;100.00;98618.98;105251;1264;98498;-78
2024/02/10 02:23:34;;;;;;;72.70;33.40;;;;;;;2.83;100.00;98617.17;105593;1265;101407;-78
2024/02/10 02:26:20;;;;;;;74.80;33.70;;;;;;;2.82;100.00;98613.67;105908;1267;99166;-78
2024/02/10 02:29:08;;;;;;;79.70;35.10;;;;;;;2.81;100.00;98617.07;105772;1266;99006;-79
2024/02/10 02:31:53;;;;;;;81.30;36.50;;;;;;;2.78;100.00;98618.42;105745;1266;98966;-79
2024/02/10 02:34:41;;;;;;;82.80;35.70;;;;;;;2.76;100.00;98623.31;105758;1265;98458;-79
2024/02/10 02:37:26;;;;;;;94.10;38.70;;;;;;;2.75;100.00;98617.77;105794;1264;102690;-78
2024/02/10 02:40:15;;;;;;;86.80;35.20;;;;;;;2.75;100.00;98616.71;105605;1262;99110;-80
2024/02/10 02:43:02;;;;;;;84.00;35.60;;;;;;;2.74;100.00;98622.64;105748;1266;99129;-79
2024/02/10 02:45:48;;;;;;;90.10;37.40;;;;;;;2.75;100.00;98632.20;105756;1268;97860;-79
2024/02/10 02:48:35;;;;;;;99.50;39.00;;;;;;;2.76;100.00;98639.50;105817;1262;98662;-79
2024/02/10 02:51:21;;;;;;;96.30;37.30;;;;;;;2.77;100.00;98642.20;105853;1263;102023;-79
2024/02/10 02:54:08;;;;;;;94.60;39.90;;;;;;;2.77;100.00;98642.87;105818;1266;99220;-78
2024/02/10 02:56:55;;;;;;;91.70;37.80;;;;;;;2.78;100.00;98640.46;105722;1268;97931;-79
2024/02/10 02:59:43;;;;;;;99.80;41.00;;;;;;;2.80;100.00;98637.77;105686;1268;98832;-78
2024/02/10 03:02:30;;;;;;;100.80;40.40;;;;;;;2.80;100.00;98635.98;105566;1266;98843;-78
2024/02/10 03:05:17;;;;;;;97.10;40.50;;;;;;;2.80;100.00;98636.01;105911;1267;101451;-79
2024/02/10 03:08:06;;;;;;;98.90;40.80;;;;;;;2.79;100.00;98640.52;105852;1265;99315;-78
2024/02/10 03:10:52;;;;;;;96.10;42.30;;;;;;;2.79;100.00;98640.39;106389;1263;99109;-79
2024/02/10 03:13:43;;;;;;;95.70;41.50;;;;;;;2.80;100.00;98638.48;105766;1266;97985;-78
2024/02/10 03:16:33;;;;;;;92.70;41.60;;;;;;;2.82;100.00;98641.52;105840;1267;96329;-79
2024/02/10 03:19:18;;;;;;;95.30;41.10;;;;;;;2.83;100.00;98644.39;105482;1262;101545;-78
2024/02/10 03:22:05;;;;;;;95.10;40.00;;;;;;;2.84;100.00;98646.80;105778;1265;99164;-78
2024/02/10 03:24:54;;;;;;;100.80;42.10;;;;;;;2.86;100.00;98640.96;105806;1261;99068;-79
2024/02/10 03:27:39;;;;;;;95.60;42.80;;;;;;;2.87;100.00;98638.98;105750;1262;98559;-79
2024/02/10 03:30:25;;;;;;;91.20;38.40;;;;;;;2.88;100.00;98648.43;105835;1266;98456;-78
2024/02/10 03:33:10;;;;;;;98.50;39.00;;;;;;;2.88;100.00;98656.56;105921;1264;102001;-79
2024/02/10 03:35:56;;;;;;;97.40;38.40;;;;;;;2.86;100.00;98659.16;105743;1267;99157;-78
2024/02/10 03:38:42;;;;;;;93.80;40.20;;;;;;;2.86;100.00;98655.94;105829;1266;98970;-78
2024/02/10 03:41:28;;;;;;;98.30;40.40;;;;;;;2.86;100.00;98653.26;105897;1264;97914;-79
2024/02/10 03:44:13;;;;;;;98.20;42.60;;;;;;;2.87;100.00;98657.50;106292;1262;98003;-80
2024/02/10 03:47:02;;;;;;;101.20;39.80;;;;;;;2.89;100.00;98662.96;105865;1264;102105;-79
2024/02/10 03:49:47;;;;;;;99.30;40.60;;;;;;;2.90;100.00;98668.07;105773;1264;100368;-78
2024/02/10 03:52:34;;;;;;;98.30;40.90;;;;;;;2.91;100.00;98668.48;105788;1267;99164;-79
2024/02/10 03:55:20;;;;;;;108.70;43.10;;;;;;;2.92;100.00;98669.23;105743;1264;97984;-80
2024/02/10 03:58:09;;;;;;;102.40;43.50;;;;;;;2.94;100.00;98670.27;105735;1267;96495;-78
2024/02/10 04:00:55;;;;;;;99.30;43.50;;;;;;;2.95;100.00;98675.05;105954;1267;101425;-79
2024/02/10 04:03:44;;;;;;;97.80;41.00;;;;;;;2.96;100.00;98680.02;105877;1266;99162;-78
2024/02/10 04:06:30;;;;;;;101.60;42.40;;;;;;;2.96;100.00;98679.30;105794;1264;100355;-79
2024/02/10 04:09:16;;;;;;;95.40;41.60;;;;;;;2.98;100.00;98674.11;105797;1262;98060;-79
2024/02/10 04:12:03;;;;;;;107.40;41.20;;;;;;;3.00;100.00;98673.34;105779;1265;97955;-78
2024/02/10 04:14:48;;;;;;;100.60;43.40;;;;;;;3.02;100.00;98672.09;105775;1264;101898;-78
2024/02/10 04:17:34;;;;;;;103.00;42.40;;;;;;;3.02;100.00;98671.71;105756;1267;99100;-79
2024/02/10 04:20:23;;;;;;;109.70;43.70;;;;;;;3.04;100.00;98669.21;105844;1262;99005;-78
2024/02/10 04:23:11;;;;;;;91.50;40.40;;;;;;;3.05;100.00;98666.70;106439;1265;97971;-79
2024/02/10 04:26:01;;;;;;;96.10;41.30;;;;;;;3.08;100.00;98670.50;106767;1266;98461;-80
2024/02/10 04:28:46;;;;;;;95.60;40.20;;;;;;;3.10;100.00;98672.36;105647;1267;101465;-78
2024/02/10 04:31:32;;;;;;;101.10;47.20;;;;;;;3.11;100.00;98673.98;105764;1262;99140;-78
2024/02/10 04:34:18;;;;;;;97.10;42.10;;;;;;;3.12;100.00;98671.21;105673;1264;97918;-78
2024/02/10 04:37:05;;;;;;;110.40;45.60;;;;;;;3.11;100.00;98666.14;105686;1264;99256;-79
2024/02/10 04:39:51;;;;;;;104.80;41.30;;;;;;;3.11;100.00;98666.16;105915;1264;97979;-79
2024/02/10 04:42:36;;;;;;;108.00;43.40;;;;;;;3.11;100.00;98669.25;105783;1264;101406;-79
2024/02/10 04:45:25;;;;;;;99.20;44.70;;;;;;;3.11;100.00;98669.38;105772;1262;99255;-78
2024/02/10 04:48:13;;;;;;;105.10;41.40;;;;;;;3.11;100.00;98665.48;105814;1267;99024;-78
2024/02/10 04:50:59;;;;;;;97.60;43.50;;;;;;;3.12;100.00;98663.98;105860;1264;97973;-79
2024/02/10 04:53:44;;;;;;;106.70;44.30;;;;;;;3.12;100.00;98662.67;105865;1262;99209;-79
2024/02/10 04:56:30;;;;;;;109.70;45.50;;;;;;;3.13;100.00;98660.45;105779;1266;101423;-77
2024/02/10 04:59:24;;;;;;;99.50;45.00;;;;;;;3.13;100.00;98660.77;105856;1264;100409;-79
2024/02/10 05:02:10;;;;;;;106.80;43.70;;;;;;;3.15;100.00;98661.15;105723;1264;97812;-79
2024/02/10 05:04:56;;;;;;;99.90;45.10;;;;;;;3.16;100.00;98657.54;105833;1264;99265;-78
2024/02/10 05:07:45;;;;;;;100.90;43.00;;;;;;;3.15;100.00;98653.39;105805;1264;99676;-78
2024/02/10 05:10:30;;;;;;;93.10;43.50;;;;;;;3.15;100.00;98651.31;105609;1266;101351;-77
2024/02/10 05:13:16;;;;;;;103.30;41.80;;;;;;;3.15;100.00;98648.46;105336;1264;100440;-77
2024/02/10 05:16:01;;;;;;;104.30;45.10;;;;;;;3.15;100.00;98649.16;105275;1261;97918;-78
2024/02/10 05:18:47;;;;;;;102.60;44.60;;;;;;;3.15;100.00;98651.92;105835;1266;97971;-78
2024/02/10 05:21:35;;;;;;;113.50;45.90;;;;;;;3.15;100.00;98651.23;105791;1265;97886;-79
2024/02/10 05:24:22;;;;;;;101.40;44.60;;;;;;;3.16;100.00;98646.43;105860;1267;102085;-79
2024/02/10 05:27:08;;;;;;;112.30;50.80;;;;;;;3.16;100.00;98642.90;105712;1266;99961;-79
2024/02/10 05:29:55;;;;;;;106.30;45.10;;;;;;;3.16;100.00;98641.30;105766;1262;99067;-78
2024/02/10 05:32:44;;;;;;;103.00;45.90;;;;;;;3.15;100.00;98635.89;105842;1266;98045;-78
2024/02/10 05:35:31;;;;;;;102.50;44.60;;;;;;;3.15;100.00;98633.13;105693;1264;98005;-77
2024/02/10 05:38:17;;;;;;;98.10;45.10;;;;;;;3.17;100.00;98628.78;105838;1262;101406;-78
2024/02/10 05:41:04;;;;;;;105.30;44.90;;;;;;;3.19;100.00;98629.94;105714;1262;99095;-79
2024/02/10 05:43:53;;;;;;;107.50;44.70;;;;;;;3.21;100.00;98626.71;105615;1267;98517;-79
2024/02/10 05:46:43;;;;;;;105.80;47.00;;;;;;;3.21;100.00;98624.14;105770;1266;98027;-78
2024/02/10 05:49:29;;;;;;;114.90;47.30;;;;;;;3.20;100.00;98619.59;105875;1267;97929;-79
2024/02/10 05:52:15;;;;;;;105.10;45.40;;;;;;;3.19;100.00;98619.20;105764;1264;101461;-78
2024/02/10 05:55:03;;;;;;;104.50;45.20;;;;;;;3.20;100.00;98615.89;105741;1264;99151;-78
2024/02/10 05:57:48;;;;;;;100.70;45.20;;;;;;;3.20;100.00;98611.89;105699;1264;97927;-78
2024/02/10 06:00:38;;;;;;;100.40;45.00;;;;;;;3.19;100.00;98610.30;105680;1262;98892;-78
2024/02/10 06:03:28;;;;;;;105.30;45.20;;;;;;;3.19;100.00;98610.06;105686;1264;98444;-78
2024/02/10 06:06:15;;;;;;;112.30;45.70;;;;;;;3.19;100.00;98608.26;105665;1262;101430;-80
2024/02/10 06:09:01;;;;;;;104.00;45.90;;;;;;;3.19;100.00;98612.33;105762;1264;99063;-78
2024/02/10 06:11:46;;;;;;;116.20;52.80;;;;;;;3.17;100.00;98608.84;105723;1264;99038;-79
2024/02/10 06:14:32;;;;;;;114.70;50.10;;;;;;;3.18;100.00;98615.45;105412;1267;98029;-77
2024/02/10 06:17:19;;;;;;;113.30;47.50;;;;;;;3.17;100.00;98614.70;105245;1263;98521;-77
2024/02/10 06:20:12;;;;;;;98.30;43.80;;;;;;;3.17;100.00;98617.91;105245;1263;102375;-79
2024/02/10 06:22:58;;;;;;;104.00;45.50;;;;;;;3.17;100.00;98619.83;105895;1265;99101;-78
2024/02/10 06:25:44;;;;;;;111.50;44.20;;;;;;;3.17;100.00;98619.59;105779;1267;97952;-78
2024/02/10 06:28:29;;;;;;;116.20;48.00;;;;;;;3.18;100.00;98623.55;105679;1262;98444;-77
2024/02/10 06:31:18;;;;;;;122.60;61.70;;;;;;;3.19;100.00;98622.09;105701;1264;98041;-78
2024/02/10 06:34:03;;;;;;;120.20;49.70;;;;;;;3.20;100.00;98626.91;105633;1266;101513;-77
2024/02/10 06:36:49;;;;;;;118.80;55.90;;;;;;;3.20;100.00;98626.34;108044;1262;99527;-79
2024/02/10 06:39:34;;;;;;;106.00;46.40;;;;;;;3.20;100.00;98630.04;106811;1262;97994;-79
2024/02/10 06:42:20;;;;;;;108.10;45.40;;;;;;;3.20;100.00;98630.57;105571;1262;98055;-79
2024/02/10 06:45:16;;;;;;;111.60;49.30;;;;;;;3.20;100.00;98633.77;105663;1264;97900;-79
2024/02/10 06:48:05;;;;;;;105.60;44.00;;;;;;;3.20;100.00;98636.67;105724;1264;101372;-78
2024/02/10 06:50:51;;;;;;;116.80;47.90;;;;;;;3.21;100.00;98644.86;105912;1262;99069;-77
2024/02/10 06:53:38;;;;;;;111.50;45.70;;;;;;;3.21;100.00;98644.94;106083;1267;98104;-80
2024/02/10 06:56:24;;;;;;;114.80;46.60;;;;;;;3.22;100.00;98643.38;106246;1262;97894;-79
2024/02/10 06:59:11;;;;;;;113.90;47.30;;;;;;;3.24;100.00;98642.61;106325;1265;97990;-79
2024/02/10 07:01:56;;;;;;;127.70;52.40;;;;;;;3.26;100.00;98644.14;106128;1262;101444;-80
2024/02/10 07:04:47;;;;;;;124.60;50.70;;;;;;;3.29;100.00;98646.98;106148;1267;99232;-79
2024/02/10 07:07:32;;;;;;;120.60;48.90;;;;;;;3.30;100.00;98649.67;106136;1266;98903;-80
2024/02/10 07:10:20;;;;;;;109.50;46.00;;;;;;;3.31;100.00;98653.39;106178;1262;99202;-79
2024/02/10 07:13:07;;;;;;;120.00;50.80;;;;;;;3.32;100.00;98657.60;106083;1262;98446;-80
2024/02/10 07:15:54;;;;;;;120.90;48.10;;;;;;;3.35;100.00;98663.33;106189;1262;101519;-79
2024/02/10 07:18:43;;;;;;;127.20;50.60;;;;;;;3.37;100.00;98669.54;106030;1267;202536;-78
2024/02/10 07:21:32;;;;;;;127.10;51.30;;;;;;;3.38;100.00;98670.61;107204;1262;98726;-79
2024/02/10 07:24:17;;;;;;;133.50;53.70;;;;;;;3.39;100.00;98676.44;105530;1262;98842;-78
2024/02/10 07:27:03;;;;;;;110.60;46.60;;;;;;;3.41;100.00;98678.57;105643;1262;97948;-78
2024/02/10 07:29:48;;;;;;;118.00;50.90;;;;;;;3.44;100.00;98680.36;105702;1264;101460;-83
2024/02/10 07:32:34;;;;;;;110.80;47.70;;;;;;;3.45;100.00;98680.83;105792;1262;99129;-85
2024/02/10 07:35:23;;;;;;;125.80;53.10;;;;;;;3.48;100.00;98682.15;105720;1264;98062;-86
2024/02/10 07:38:09;;;;;;;129.20;51.30;;;;;;;3.50;100.00;98686.97;105661;1262;97967;-85
2024/02/10 07:40:55;;;;;;;133.80;53.20;;;;;;;3.50;100.00;98686.41;106370;1264;97343;-85
2024/02/10 07:43:40;;;;;;;130.90;52.20;;;;;;;3.52;100.00;98690.19;106430;1263;101434;-83
2024/02/10 07:46:26;;;;;;;124.50;51.60;;;;;;;3.55;100.00;98686.30;106700;1264;99398;-82
2024/02/10 07:49:13;;;;;;;128.60;50.40;;;;;;;3.58;100.00;98688.57;106604;1262;97924;-84
2024/02/10 07:51:59;;;;;;;127.90;51.30;;;;;;;3.60;100.00;98691.11;106275;1269;98062;-79
2024/02/10 07:54:47;;;;;;;123.20;51.30;;;;;;;3.62;100.00;98690.72;105157;1267;98027;-80
2024/02/10 07:57:34;;;;;;;134.20;54.10;;;;;;;3.64;100.00;98686.63;105130;1266;103126;-77
2024/02/10 08:00:20;;;;;;;123.40;50.50;;;;;;;3.66;100.00;98683.05;105292;1265;100673;-77
2024/02/10 08:03:06;;;;;;;125.80;49.50;;;;;;;3.68;100.00;98674.81;105493;1262;98266;-78
2024/02/10 08:05:52;;;;;;;122.60;51.30;;;;;;;3.69;100.00;98673.24;105392;1267;97933;-78
2024/02/10 08:08:38;;;;;;;133.80;54.80;;;;;;;3.72;100.00;98680.15;105324;1264;98485;-79
2024/02/10 08:11:27;;;;;;;123.80;49.40;;;;;;;3.75;100.00;98676.91;105391;1266;101350;-78
2024/02/10 08:14:14;;;;;;;121.50;52.90;;;;;;;3.77;100.00;98673.48;105450;1266;99926;-79
2024/02/10 08:16:59;;;;;;;123.70;53.30;;;;;;;3.80;100.00;98671.14;105392;1262;99256;-79
2024/02/10 08:19:45;;;;;;;123.90;53.50;;;;;;;3.83;100.00;98669.54;105391;1261;97953;-78
2024/02/10 08:22:33;;;;;;;125.20;50.80;;;;;;;3.87;100.00;98664.52;105399;1262;98073;-78
2024/02/10 08:25:20;;;;;;;117.50;50.60;;;;;;;3.89;100.00;98664.73;105401;1262;101428;-80
2024/02/10 08:28:07;;;;;;;121.60;50.10;;;;;;;3.93;100.00;98662.98;105776;1262;100331;-82
2024/02/10 08:30:53;;;;;;;132.10;53.00;;;;;;;3.97;100.00;98663.29;106030;1262;97795;-83
2024/02/10 08:33:44;;;;;;;111.00;48.20;;;;;;;4.00;100.00;98656.84;105838;1267;97961;-81
2024/02/10 08:36:31;;;;;;;117.80;49.30;;;;;;;4.04;100.00;98648.42;105777;1264;97964;-83
2024/02/10 08:39:18;;;;;;;126.60;50.00;;;;;;;4.07;100.00;98650.13;105948;1266;101735;-84
2024/02/10 08:42:09;;;;;;;126.60;54.60;;;;;;;4.11;100.00;98652.11;105809;1270;99182;-83
2024/02/10 08:44:55;;;;;;;123.50;49.90;;;;;;;4.15;100.00;98654.19;105569;1262;99110;-82
2024/02/10 08:47:42;;;;;;;114.70;49.60;;;;;;;4.18;100.00;98656.27;105527;1262;97980;-82
2024/02/10 08:50:27;;;;;;;109.00;49.20;;;;;;;4.21;100.00;98664.25;105755;1262;99709;-81
2024/02/10 08:53:16;;;;;;;118.20;51.40;;;;;;;4.23;100.00;98672.79;105709;1267;102776;-81
2024/02/10 08:56:05;;;;;;;125.50;55.60;;;;;;;4.25;100.00;98676.39;105775;1266;99414;-81
2024/02/10 08:58:51;;;;;;;132.20;57.70;;;;;;;4.30;100.00;98682.86;105759;1262;99130;-81
2024/02/10 09:01:42;;;;;;;153.70;58.90;;;;;;;4.35;100.00;98688.39;105965;1262;97981;-85
2024/02/10 09:04:31;;;;;;;137.50;55.90;;;;;;;4.40;100.00;98692.55;106186;1263;97917;-86
2024/02/10 09:07:18;;;;;;;122.40;53.70;;;;;;;4.44;100.00;98698.04;106114;1262;101451;-86
2024/02/10 09:10:05;;;;;;;120.30;53.50;;;;;;;4.47;100.00;98699.54;105887;1262;101052;-87
2024/02/10 09:12:56;;;;;;;138.30;57.50;;;;;;;4.52;100.00;98692.61;106010;1269;97882;-85
2024/02/10 09:15:46;;;;;;;142.10;55.00;;;;;;;4.57;100.00;98690.30;105842;1269;98027;-86
2024/02/10 09:18:33;;;;;;;137.00;57.60;;;;;;;4.64;100.00;98689.73;105810;1261;98419;-83
2024/02/10 09:21:19;;;;;;;145.40;61.30;;;;;;;4.71;100.00;98692.59;105808;1262;102708;-84
2024/02/10 09:24:09;;;;;;;129.40;55.70;;;;;;;4.77;100.00;98694.09;105907;1262;100403;-84
2024/02/10 09:26:55;;;;;;;122.70;50.30;;;;;;;4.84;100.00;98699.92;105705;1262;97946;-83
2024/02/10 09:29:42;;;;;;;129.10;51.80;;;;;;;4.88;100.00;98704.18;105690;1263;97996;-86
2024/02/10 09:32:28;;;;;;;115.10;50.00;;;;;;;4.91;100.00;98710.48;105748;1267;98458;-83
2024/02/10 09:35:14;;;;;;;115.10;52.20;;;;;;;4.96;100.00;98712.02;105924;1262;101402;-82
2024/02/10 09:38:00;;;;;;;118.30;52.60;;;;;;;5.00;100.00;98708.07;105939;1262;99506;-82
2024/02/10 09:40:46;;;;;;;125.90;52.70;;;;;;;5.04;100.00;98704.91;105828;1262;98976;-78
2024/02/10 09:43:36;;;;;;;115.60;49.60;;;;;;;5.09;100.00;98701.91;105328;1264;98103;-79
2024/02/10 09:46:21;;;;;;;111.10;49.20;;;;;;;5.16;100.00;98706.77;105428;1262;98561;-80
2024/02/10 09:49:12;;;;;;;110.30;48.60;;;;;;;5.24;100.00;98711.73;105543;1266;102332;-79
2024/02/10 09:51:58;;;;;;;104.90;47.70;;;;;;;5.31;100.00;98714.12;105618;1262;100805;-79
2024/02/10 09:54:44;;;;;;;106.80;49.20;;;;;;;5.36;100.00;98713.05;105230;1265;100234;-78
2024/02/10 09:57:29;;;;;;;107.30;49.40;;;;;;;5.39;100.00;98713.83;105156;1270;98093;-77
2024/02/10 10:00:17;;;;;;;108.30;50.80;;;;;;;5.40;100.00;98715.86;105936;1262;98439;-83
2024/02/10 10:03:04;;;;;;;96.30;46.40;;;;;;;5.44;100.00;98721.04;105989;1262;101412;-85
2024/02/10 10:05:50;;;;;;;111.30;49.50;;;;;;;5.50;100.00;98725.98;105782;1267;98913;-83
2024/02/10 10:08:39;;;;;;;105.90;49.50;;;;;;;5.56;100.00;98727.23;105800;1266;97805;-82
2024/02/10 10:11:24;;;;;;;107.90;50.50;;;;;;;5.61;100.00;98729.98;105799;1261;98003;-83
2024/02/10 10:14:16;;;;;;;110.20;51.20;;;;;;;5.63;100.00;98729.88;105736;1262;98434;-82
2024/02/10 10:17:04;;;;;;;116.50;55.10;;;;;;;5.65;100.00;98728.90;106127;1262;102708;-85
2024/02/10 10:20:00;;;;;;;105.40;49.80;;;;;;;5.66;100.00;98733.46;105864;1265;99255;-83
2024/02/10 10:22:46;;;;;;;107.60;50.20;;;;;;;5.67;100.00;98734.34;105739;1262;98485;-84
2024/02/10 10:25:31;;;;;;;106.00;51.30;;;;;;;5.71;100.00;98737.13;105669;1262;98005;-81
2024/02/10 10:28:17;;;;;;;105.90;50.60;;;;;;;5.75;100.00;98741.25;106301;1262;98574;-83
2024/02/10 10:31:04;;;;;;;110.90;49.80;;;;;;;5.78;100.00;98740.41;106007;1262;102625;-85
2024/02/10 10:33:51;;;;;;;100.90;47.30;;;;;;;5.82;100.00;98741.53;106068;1265;100494;-86
2024/02/10 10:36:39;;;;;;;103.50;47.60;;;;;;;5.84;100.00;98740.98;105738;1262;99069;-81
2024/02/10 10:39:29;;;;;;;96.10;46.70;;;;;;;5.87;100.00;98741.65;105808;1266;98019;-83
2024/02/10 10:42:17;;;;;;;104.60;48.10;;;;;;;5.90;100.00;98742.96;105810;1268;97988;-82
2024/02/10 10:45:05;;;;;;;99.30;46.00;;;;;;;5.92;100.00;98741.61;105701;1262;101465;-81
2024/02/10 10:47:50;;;;;;;105.20;46.90;;;;;;;5.94;100.00;98744.50;105512;1261;99172;-83
2024/02/10 10:50:36;;;;;;;91.20;44.90;;;;;;;5.96;100.00;98746.48;105858;1264;99023;-80
2024/02/10 10:53:27;;;;;;;93.60;44.30;;;;;;;5.95;100.00;98750.25;105880;1262;98323;-81
2024/02/10 10:56:14;;;;;;;;;;;;;;;5.96;100.00;98750.65;106639;1262;97925;-84
2024/02/10 10:59:04;;;;;;;84.60;40.80;;;;;;;5.97;100.00;98753.35;105654;1262;101484;-82
2024/02/10 11:01:51;;;;;;;93.80;45.90;;;;;;;5.99;100.00;98752.73;104867;1262;99082;-76
2024/02/10 11:04:37;;;;;;;102.50;48.10;;;;;;;6.01;100.00;98753.02;105446;1262;97990;-76
2024/02/10 11:07:32;;;;;;;96.70;48.10;;;;;;;6.02;100.00;98752.75;104846;1262;98071;-76
2024/02/10 11:10:37;;;;;;;125.50;55.50;;;;;;;6.05;100.00;98752.09;106097;1262;96358;-76
2024/02/10 11:13:26;;;;;;;163.80;84.90;;;;;;;6.07;100.00;98752.54;105401;1266;102587;-85
2024/02/10 11:16:12;;;;;;;169.10;90.10;;;;;;;6.08;100.00;98758.97;105643;1266;99107;-84
2024/02/10 11:19:00;;;;;;;185.10;91.30;;;;;;;6.09;100.00;98765.96;105960;1264;98942;-83
2024/02/10 11:21:46;;;;;;;118.00;58.60;;;;;;;6.10;100.00;98766.66;105698;1262;97972;-82
2024/02/10 11:24:33;;;;;;;167.50;74.50;;;;;;;6.11;100.00;98767.07;105858;1262;98573;-79
2024/02/10 11:27:19;;;;;;;734.40;392.20;;;;;;;6.12;100.00;98764.63;105545;1262;101710;-80
2024/02/10 11:30:07;;;;;;;343.30;190.10;;;;;;;6.14;100.00;98755.87;105492;1267;99643;-80
2024/02/10 11:32:52;;;;;;;173.80;96.30;;;;;;;6.15;100.00;98751.00;105593;1262;97997;-79
2024/02/10 11:35:38;;;;;;;128.50;65.60;;;;;;;6.14;100.00;98751.90;106122;1262;97952;-84
2024/02/10 11:38:25;;;;;;;106.80;55.30;;;;;;;6.15;100.00;98748.87;105776;1264;98615;-84
2024/02/10 11:41:11;;;;;;;107.90;52.40;;;;;;;6.15;100.00;98749.54;105916;1262;101440;-87
2024/02/10 11:43:56;;;;;;;103.60;49.00;;;;;;;6.16;100.00;98749.00;106051;1267;99166;-80
2024/02/10 11:46:42;;;;;;;96.90;45.30;;;;;;;6.18;100.00;98745.86;105983;1262;97952;-83
2024/02/10 11:49:28;;;;;;;100.90;48.50;;;;;;;6.21;100.00;98746.05;105776;1267;97920;-80
2024/02/10 11:52:14;;;;;;;100.80;48.40;;;;;;;6.24;100.00;98748.99;105546;1267;98586;-80
2024/02/10 11:54:59;;;;;;;93.90;43.90;;;;;;;6.26;100.00;98750.23;105567;1266;101394;-80
2024/02/10 11:57:45;;;;;;;94.30;44.10;;;;;;;6.26;100.00;98744.38;105514;1266;99231;-79
2024/02/10 12:00:32;;;;;;;100.90;45.50;;;;;;;6.26;100.00;98741.64;105339;1264;97996;-78
2024/02/10 12:03:19;;;;;;;95.80;45.10;;;;;;;6.28;100.00;98741.03;105423;1267;97997;-79
2024/02/10 12:06:05;;;;;;;96.60;46.50;;;;;;;6.30;100.00;98739.04;105367;1266;98409;-84
2024/02/10 12:08:51;;;;;;;99.40;46.70;;;;;;;6.32;100.00;98739.44;105755;1267;101572;-82
2024/02/10 12:11:37;;;;;;;93.80;44.30;;;;;;;6.35;100.00;98739.09;106077;1266;100832;-84
2024/02/10 12:14:24;;;;;;;95.00;44.60;;;;;;;6.37;100.00;98736.25;106054;1261;97966;-83
2024/02/10 12:17:19;;;;;;;90.80;42.30;;;;;;;6.40;100.00;98731.48;105835;1262;98354;-86
2024/02/10 12:20:05;;;;;;;94.00;45.70;;;;;;;6.43;100.00;98722.78;105988;1262;98436;-85
2024/02/10 12:22:52;;;;;;;99.60;48.50;;;;;;;6.49;100.00;98718.35;106119;1262;102709;-83
2024/02/10 12:25:38;;;;;;;98.70;52.20;;;;;;;6.52;100.00;98714.73;105596;1266;100004;-79
2024/02/10 12:28:23;;;;;;;102.30;49.70;;;;;;;6.56;100.00;98716.71;105769;1265;99093;-79
2024/02/10 12:31:10;;;;;;;102.20;51.10;;;;;;;6.59;100.00;98707.38;105652;1262;97966;-86